createdAt,value
2019-02-22T00:00:51.659Z,26.63
2019-02-22T00:03:24.325Z,24.97
2019-02-22T00:05:35.139Z,31.10
2019-02-22T00:07:45.956Z,22.20
2019-02-22T00:09:56.781Z,28.73
2019-02-22T00:12:07.603Z,27.07
2019-02-22T00:14:18.434Z,27.73
2019-02-22T00:16:29.216Z,25.20
2019-02-22T00:18:40.035Z,27.30
2019-02-22T00:20:50.846Z,24.57
2019-02-22T00:23:01.683Z,23.13
2019-02-22T00:25:12.491Z,27.90
2019-02-22T00:27:23.321Z,27.63
2019-02-22T00:29:34.122Z,26.57
2019-02-22T00:31:45.048Z,28.37
2019-02-22T00:33:55.871Z,24.73
2019-02-22T00:36:06.720Z,27.90
2019-02-22T00:38:17.513Z,27.37
2019-02-22T00:40:28.318Z,25.47
2019-02-22T00:42:39.125Z,27.13
2019-02-22T00:44:49.918Z,23.37
2019-02-22T00:47:00.712Z,25.03
2019-02-22T00:49:11.535Z,25.43
2019-02-22T00:51:22.436Z,23.43
2019-02-22T00:53:33.265Z,26.57
2019-02-22T00:55:44.077Z,24.80
2019-02-22T00:57:54.940Z,25.10
2019-02-22T01:00:47.325Z,24.47
2019-02-22T01:02:58.136Z,26.60
2019-02-22T01:05:09.043Z,24.63
2019-02-22T01:07:21.781Z,29.40
2019-02-22T01:09:32.580Z,27.27
2019-02-22T01:11:43.392Z,28.73
2019-02-22T01:13:54.247Z,29.13
2019-02-22T01:16:05.000Z,25.00
2019-02-22T01:18:15.947Z,27.77
2019-02-22T01:20:26.752Z,25.60
2019-02-22T01:22:37.610Z,28.07
2019-02-22T01:24:48.442Z,24.40
2019-02-22T01:26:59.242Z,25.87
2019-02-22T01:29:10.063Z,30.73
2019-02-22T01:31:20.859Z,25.50
2019-02-22T01:33:31.683Z,24.70
2019-02-22T01:35:42.468Z,30.50
2019-02-22T01:37:53.292Z,27.70
2019-02-22T01:40:45.765Z,26.57
2019-02-22T01:42:56.652Z,28.07
2019-02-22T01:45:07.683Z,27.47
2019-02-22T01:47:18.472Z,26.97
2019-02-22T01:49:29.286Z,27.67
2019-02-22T01:51:40.087Z,29.60
2019-02-22T01:53:50.904Z,26.03
2019-02-22T01:56:01.692Z,26.03
2019-02-22T01:58:12.574Z,23.27
2019-02-22T02:00:23.326Z,26.33
2019-02-22T02:02:34.145Z,27.77
2019-02-22T02:04:45.507Z,23.90
2019-02-22T02:06:56.309Z,24.30
2019-02-22T02:09:07.103Z,23.17
2019-02-22T02:11:17.937Z,28.90
2019-02-22T02:13:28.736Z,24.13
2019-02-22T02:15:39.537Z,25.53
2019-02-22T02:17:50.324Z,25.80
2019-02-22T02:20:01.338Z,26.87
2019-02-22T02:22:13.875Z,29.53
2019-02-22T02:24:24.664Z,27.93
2019-02-22T02:26:35.472Z,31.07
2019-02-22T02:28:46.272Z,28.20
2019-02-22T02:30:57.086Z,26.40
2019-02-22T02:33:07.899Z,26.83
2019-02-22T02:35:18.699Z,24.03
2019-02-22T02:37:29.497Z,26.87
2019-02-22T02:39:40.285Z,23.00
2019-02-22T02:41:51.113Z,25.23
2019-02-22T02:44:01.898Z,25.63
2019-02-22T02:46:12.769Z,25.57
2019-02-22T02:48:23.564Z,23.97
2019-02-22T02:50:34.386Z,25.27
2019-02-22T02:52:45.214Z,25.80
2019-02-22T02:54:55.974Z,23.63
2019-02-22T02:57:06.786Z,27.77
2019-02-22T02:59:17.603Z,26.77
2019-02-22T03:01:28.408Z,27.07
2019-02-22T03:03:39.213Z,26.00
2019-02-22T03:06:09.905Z,28.57
2019-02-22T03:10:53.143Z,26.37
2019-02-22T03:13:03.940Z,23.77
2019-02-22T03:17:47.109Z,22.67
2019-02-22T03:19:57.917Z,25.57
2019-02-22T03:22:08.742Z,23.00
2019-02-22T03:24:19.547Z,26.70
2019-02-22T03:26:30.332Z,27.03
2019-02-22T03:28:41.158Z,24.37
2019-02-22T03:30:51.951Z,25.40
2019-02-22T03:33:02.763Z,26.00
2019-02-22T03:35:33.422Z,30.40
2019-02-22T03:37:44.239Z,25.40
2019-02-22T03:39:55.037Z,31.40
2019-02-22T03:42:05.848Z,32.30
2019-02-22T03:44:16.627Z,27.90
2019-02-22T03:46:27.425Z,28.90
2019-02-22T03:48:38.236Z,34.00
2019-02-22T03:50:49.040Z,28.47
2019-02-22T03:55:18.870Z,31.97
2019-02-22T03:57:29.665Z,28.97
2019-02-22T03:59:40.483Z,29.97
2019-02-22T04:01:51.283Z,23.17
2019-02-22T04:04:02.117Z,24.20
2019-02-22T04:06:12.914Z,18.43
2019-02-22T04:08:23.728Z,19.93
2019-02-22T04:10:34.524Z,27.80
2019-02-22T04:12:45.341Z,25.40
2019-02-22T04:14:56.160Z,24.40
2019-02-22T04:17:06.990Z,23.30
2019-02-22T04:19:17.795Z,28.83
2019-02-22T04:21:28.655Z,28.47
2019-02-22T04:23:39.554Z,25.10
2019-02-22T04:25:50.376Z,28.50
2019-02-22T04:28:01.201Z,24.20
2019-02-22T04:30:12.092Z,25.30
2019-02-22T04:32:22.884Z,25.57
2019-02-22T04:36:56.122Z,27.87
2019-02-22T04:39:06.883Z,25.40
2019-02-22T04:41:17.694Z,26.27
2019-02-22T04:43:28.504Z,27.60
2019-02-22T04:45:39.310Z,28.83
2019-02-22T04:47:50.129Z,28.83
2019-02-22T04:50:00.938Z,28.03
2019-02-22T04:52:11.744Z,31.57
2019-02-22T04:54:22.559Z,31.07
2019-02-22T04:56:33.366Z,29.67
2019-02-22T04:58:44.249Z,27.07
2019-02-22T05:00:55.072Z,27.73
2019-02-22T05:03:05.895Z,30.90
2019-02-22T05:05:16.700Z,33.27
2019-02-22T05:07:27.503Z,26.17
2019-02-22T05:09:38.298Z,31.47
2019-02-22T05:11:49.108Z,32.63
2019-02-22T05:13:59.903Z,37.37
2019-02-22T05:16:10.797Z,33.20
2019-02-22T05:18:21.591Z,33.07
2019-02-22T05:20:32.419Z,37.63
2019-02-22T05:22:43.237Z,40.37
2019-02-22T05:24:54.036Z,40.07
2019-02-22T05:27:04.879Z,36.33
2019-02-22T05:29:15.690Z,40.23
2019-02-22T05:31:26.488Z,41.20
2019-02-22T05:33:37.296Z,40.13
2019-02-22T05:35:48.115Z,41.23
2019-02-22T05:37:59.030Z,47.60
2019-02-22T05:40:09.828Z,49.53
2019-02-22T05:42:23.159Z,46.37
2019-02-22T05:44:33.532Z,51.20
2019-02-22T05:46:44.380Z,51.60
2019-02-22T05:48:55.163Z,52.47
2019-02-22T05:51:06.096Z,50.13
2019-02-22T05:53:16.913Z,50.37
2019-02-22T05:55:27.719Z,47.70
2019-02-22T05:57:38.542Z,48.10
2019-02-22T05:59:49.346Z,44.37
2019-02-22T06:02:00.141Z,50.40
2019-02-22T06:04:10.942Z,47.13
2019-02-22T06:06:21.745Z,58.93
2019-02-22T06:08:32.588Z,46.50
2019-02-22T06:10:43.373Z,47.77
2019-02-22T06:12:54.192Z,40.57
2019-02-22T06:15:46.649Z,47.17
2019-02-22T06:17:57.460Z,55.90
2019-02-22T06:20:49.923Z,56.03
2019-02-22T06:23:00.760Z,49.83
2019-02-22T06:25:11.586Z,53.90
2019-02-22T06:27:22.392Z,57.10
2019-02-22T06:29:33.201Z,58.93
2019-02-22T06:31:44.007Z,53.30
2019-02-22T06:33:54.809Z,55.57
2019-02-22T06:36:05.696Z,57.27
2019-02-22T06:38:16.521Z,50.97
2019-02-22T06:40:27.334Z,55.13
2019-02-22T06:42:45.379Z,51.20
2019-02-22T06:44:51.076Z,53.50
2019-02-22T06:47:01.911Z,53.17
2019-02-22T06:49:12.726Z,54.03
2019-02-22T06:51:23.513Z,52.43
2019-02-22T06:53:34.342Z,53.30
2019-02-22T06:55:45.136Z,58.93
2019-02-22T06:57:56.022Z,60.97
2019-02-22T07:00:48.486Z,54.63
2019-02-22T07:02:59.291Z,59.60
2019-02-22T07:05:10.155Z,53.63
2019-02-22T07:07:20.949Z,57.13
2019-02-22T07:09:31.769Z,56.83
2019-02-22T07:12:02.434Z,52.20
2019-02-22T07:14:13.309Z,66.47
2019-02-22T07:16:24.106Z,54.30
2019-02-22T07:18:34.912Z,53.03
2019-02-22T07:20:45.734Z,55.63
2019-02-22T07:22:56.620Z,55.73
2019-02-22T07:25:49.098Z,55.00
2019-02-22T07:27:59.892Z,62.13
2019-02-22T07:30:11.112Z,64.00
2019-02-22T07:32:21.897Z,61.73
2019-02-22T07:34:32.696Z,65.20
2019-02-22T07:36:43.623Z,46.87
2019-02-22T07:38:54.412Z,44.90
2019-02-22T07:41:05.237Z,59.27
2019-02-22T07:43:16.025Z,64.40
2019-02-22T07:45:26.849Z,41.03
2019-02-22T07:47:37.644Z,39.40
2019-02-22T07:49:48.431Z,51.37
2019-02-22T07:51:59.250Z,55.17
2019-02-22T07:54:10.054Z,46.90
2019-02-22T07:56:20.883Z,56.43
2019-02-22T07:58:31.673Z,57.97
2019-02-22T08:00:42.497Z,56.97
2019-02-22T08:02:53.303Z,62.90
2019-02-22T08:05:25.870Z,62.10
2019-02-22T08:07:36.699Z,57.03
2019-02-22T08:09:47.525Z,57.70
2019-02-22T08:11:58.442Z,57.17
2019-02-22T08:14:09.240Z,63.03
2019-02-22T08:16:20.081Z,58.43
2019-02-22T08:18:30.886Z,62.37
2019-02-22T08:20:41.702Z,57.43
2019-02-22T08:22:52.552Z,57.97
2019-02-22T08:25:44.988Z,56.33
2019-02-22T08:27:55.805Z,63.00
2019-02-22T08:30:48.499Z,58.00
2019-02-22T08:32:59.346Z,63.60
2019-02-22T08:35:10.147Z,54.10
2019-02-22T08:37:21.057Z,57.87
2019-02-22T08:39:31.856Z,51.90
2019-02-22T08:41:42.670Z,52.13
2019-02-22T08:43:53.484Z,54.50
2019-02-22T08:46:04.394Z,47.50
2019-02-22T08:48:15.308Z,57.40
2019-02-22T08:50:26.146Z,56.77
2019-02-22T08:52:36.965Z,53.90
2019-02-22T08:54:48.102Z,56.10
2019-02-22T08:57:00.484Z,55.97
2019-02-22T08:59:11.309Z,58.03
2019-02-22T09:01:22.652Z,56.80
2019-02-22T09:05:57.632Z,55.57
2019-02-22T09:08:08.466Z,51.70
2019-02-22T09:10:19.291Z,56.80
2019-02-22T09:12:30.075Z,50.90
2019-02-22T09:14:40.960Z,52.97
2019-02-22T09:16:51.738Z,53.27
2019-02-22T09:19:02.558Z,53.60
2019-02-22T09:21:13.367Z,47.83
2019-02-22T09:23:24.317Z,51.63
2019-02-22T09:25:35.134Z,49.93
2019-02-22T09:27:45.945Z,51.77
2019-02-22T09:29:59.032Z,52.47
2019-02-22T09:32:09.503Z,48.87
2019-02-22T09:34:20.360Z,46.33
2019-02-22T09:36:31.169Z,48.57
2019-02-22T09:38:41.979Z,47.60
2019-02-22T09:40:52.825Z,44.47
2019-02-22T09:43:03.628Z,50.50
2019-02-22T09:45:14.459Z,48.67
2019-02-22T09:47:25.397Z,43.47
2019-02-22T09:49:36.199Z,47.03
2019-02-22T09:51:47.140Z,44.00
2019-02-22T09:53:57.913Z,40.50
2019-02-22T09:56:08.766Z,39.30
2019-02-22T09:58:19.541Z,38.93
2019-02-22T10:00:30.386Z,41.50
2019-02-22T10:02:41.281Z,40.63
2019-02-22T10:04:54.933Z,37.23
2019-02-22T10:07:04.827Z,38.97
2019-02-22T10:09:15.606Z,35.67
2019-02-22T10:11:26.449Z,31.63
2019-02-22T10:13:37.282Z,27.13
2019-02-22T10:15:48.069Z,22.27
2019-02-22T10:17:58.870Z,30.80
2019-02-22T10:20:09.675Z,32.87
2019-02-22T10:22:20.526Z,33.43
2019-02-22T10:24:31.327Z,31.40
2019-02-22T10:26:42.181Z,25.53
2019-02-22T10:28:53.016Z,25.37
2019-02-22T10:31:03.831Z,28.87
2019-02-22T10:33:14.684Z,26.67
2019-02-22T10:35:25.485Z,23.10
2019-02-22T10:37:36.319Z,24.07
2019-02-22T10:39:47.100Z,24.00
2019-02-22T10:41:57.925Z,18.67
2019-02-22T10:44:17.371Z,24.40
2019-02-22T10:46:22.458Z,24.67
2019-02-22T10:48:34.163Z,24.17
2019-02-22T10:51:04.843Z,17.03
2019-02-22T10:53:15.749Z,14.47
2019-02-22T10:55:26.510Z,14.87
2019-02-22T10:57:37.330Z,15.57
2019-02-22T10:59:55.326Z,14.70
2019-02-22T11:02:06.189Z,16.40
2019-02-22T11:04:17.102Z,12.40
2019-02-22T11:06:27.916Z,10.60
2019-02-22T11:08:38.756Z,7.07
2019-02-22T11:10:49.585Z,7.97
2019-02-22T11:13:00.426Z,7.60
2019-02-22T11:15:52.884Z,8.13
2019-02-22T11:18:03.830Z,10.20
2019-02-22T11:20:14.655Z,10.90
2019-02-22T11:22:25.472Z,8.13
2019-02-22T11:24:36.310Z,8.47
2019-02-22T11:26:47.113Z,9.23
2019-02-22T11:28:57.951Z,9.80
2019-02-22T11:31:08.766Z,5.53
2019-02-22T11:33:19.561Z,6.13
2019-02-22T11:35:30.384Z,7.03
2019-02-22T11:37:41.195Z,10.30
2019-02-22T11:39:52.017Z,6.87
2019-02-22T11:42:44.470Z,7.10
2019-02-22T11:44:55.296Z,9.57
2019-02-22T11:47:06.277Z,9.63
2019-02-22T11:49:17.110Z,7.37
2019-02-22T11:51:27.931Z,7.27
2019-02-22T11:53:38.768Z,8.50
2019-02-22T11:55:49.694Z,7.73
2019-02-22T11:58:00.506Z,9.33
2019-02-22T12:00:52.990Z,8.33
2019-02-22T12:03:21.256Z,10.90
2019-02-22T12:05:16.707Z,9.90
2019-02-22T12:07:27.527Z,10.23
2019-02-22T12:09:38.422Z,9.57
2019-02-22T12:11:49.235Z,11.03
2019-02-22T12:14:00.077Z,11.60
2019-02-22T12:16:10.917Z,10.57
2019-02-22T12:18:21.722Z,11.87
2019-02-22T12:20:32.543Z,12.43
2019-02-22T12:22:43.366Z,8.27
2019-02-22T12:24:54.276Z,11.10
2019-02-22T12:27:05.108Z,11.50
2019-02-22T12:29:15.926Z,12.20
2019-02-22T12:31:26.766Z,8.33
2019-02-22T12:33:37.563Z,17.63
2019-02-22T12:35:48.372Z,16.63
2019-02-22T12:37:59.311Z,11.53
2019-02-22T12:40:51.791Z,13.37
2019-02-22T12:43:02.679Z,10.57
2019-02-22T12:45:13.476Z,9.23
2019-02-22T12:47:24.337Z,9.13
2019-02-22T12:49:35.148Z,9.17
2019-02-22T12:51:46.064Z,8.80
2019-02-22T12:53:56.922Z,7.93
2019-02-22T12:56:07.757Z,8.53
2019-02-22T12:58:18.563Z,7.93
2019-02-22T13:00:29.358Z,10.97
2019-02-22T13:02:40.176Z,8.80
2019-02-22T13:04:51.086Z,9.67
2019-02-22T13:07:01.932Z,8.67
2019-02-22T13:09:12.876Z,9.37
2019-02-22T13:11:23.716Z,8.10
2019-02-22T13:13:34.540Z,8.50
2019-02-22T13:15:45.355Z,8.73
2019-02-22T13:17:56.202Z,9.00
2019-02-22T13:20:48.633Z,8.07
2019-02-22T13:22:59.482Z,9.33
2019-02-22T13:25:10.626Z,9.67
2019-02-22T13:27:21.411Z,7.63
2019-02-22T13:29:32.240Z,8.93
2019-02-22T13:31:43.010Z,11.50
2019-02-22T13:33:53.851Z,10.07
2019-02-22T13:36:04.655Z,8.33
2019-02-22T13:38:15.478Z,8.93
2019-02-22T13:40:26.303Z,7.53
2019-02-22T13:42:37.119Z,6.93
2019-02-22T13:44:47.976Z,7.30
2019-02-22T13:46:58.879Z,8.30
2019-02-22T13:49:09.882Z,7.60
2019-02-22T13:51:20.630Z,6.77
2019-02-22T13:53:31.499Z,7.63
2019-02-22T13:55:42.322Z,8.43
2019-02-22T13:57:53.117Z,8.30
2019-02-22T14:00:45.779Z,7.20
2019-02-22T14:02:56.600Z,9.63
2019-02-22T14:05:07.588Z,7.27
2019-02-22T14:07:18.342Z,7.30
2019-02-22T14:09:29.157Z,6.90
2019-02-22T14:11:39.950Z,6.63
2019-02-22T14:13:50.773Z,6.67
2019-02-22T14:16:01.609Z,6.57
2019-02-22T14:18:12.404Z,6.23
2019-02-22T14:20:23.248Z,7.27
2019-02-22T14:22:34.074Z,6.20
2019-02-22T14:24:44.932Z,7.23
2019-02-22T14:26:55.759Z,6.03
2019-02-22T14:29:06.551Z,5.43
2019-02-22T14:31:17.379Z,6.00
2019-02-22T14:33:28.187Z,5.17
2019-02-22T14:35:39.034Z,5.27
2019-02-22T14:37:49.853Z,3.83
2019-02-22T14:40:03.669Z,5.10
2019-02-22T14:42:13.497Z,5.43
2019-02-22T14:44:24.312Z,4.83
2019-02-22T14:46:35.121Z,4.83
2019-02-22T14:48:45.942Z,7.33
2019-02-22T14:50:56.751Z,4.80
2019-02-22T14:53:18.771Z,4.90
2019-02-22T14:55:20.280Z,5.90
2019-02-22T14:57:31.130Z,4.97
2019-02-22T14:59:41.947Z,6.40
2019-02-22T15:01:52.786Z,5.67
2019-02-22T15:04:03.694Z,6.83
2019-02-22T15:06:14.536Z,6.17
2019-02-22T15:08:25.343Z,5.50
2019-02-22T15:10:36.182Z,5.73
2019-02-22T15:12:47.100Z,5.87
2019-02-22T15:14:57.923Z,5.67
2019-02-22T15:17:28.630Z,5.47
2019-02-22T15:19:39.533Z,5.80
2019-02-22T15:21:50.480Z,6.47
2019-02-22T15:24:01.313Z,5.60
2019-02-22T15:26:12.124Z,7.60
2019-02-22T15:28:22.966Z,5.47
2019-02-22T15:30:33.934Z,6.13
2019-02-22T15:32:44.819Z,6.00
2019-02-22T15:34:55.608Z,5.90
2019-02-22T15:37:06.424Z,6.13
2019-02-22T15:39:17.260Z,6.97
2019-02-22T15:41:28.082Z,5.70
2019-02-22T15:43:38.894Z,7.63
2019-02-22T15:45:49.738Z,6.43
2019-02-22T15:48:00.558Z,6.50
2019-02-22T15:50:33.122Z,7.17
2019-02-22T15:55:44.661Z,5.90
2019-02-22T15:57:55.471Z,4.87
2019-02-22T16:00:48.072Z,5.40
2019-02-22T16:02:58.871Z,5.70
2019-02-22T16:07:32.044Z,7.70
2019-02-22T16:09:42.863Z,6.47
2019-02-22T16:11:53.711Z,7.17
2019-02-22T16:14:07.111Z,7.43
2019-02-22T16:16:23.164Z,7.03
2019-02-22T16:18:30.304Z,6.10
2019-02-22T16:20:41.261Z,5.63
2019-02-22T16:22:52.107Z,5.23
2019-02-22T16:25:44.575Z,6.10
2019-02-22T16:27:55.409Z,6.27
2019-02-22T16:30:48.113Z,4.33
2019-02-22T16:32:58.893Z,5.20
2019-02-22T16:35:09.850Z,5.60
2019-02-22T16:37:20.791Z,3.53
2019-02-22T16:39:31.610Z,5.50
2019-02-22T16:41:42.430Z,4.53
2019-02-22T16:43:53.229Z,5.50
2019-02-22T16:46:04.057Z,4.67
2019-02-22T16:48:14.869Z,4.60
2019-02-22T16:50:25.699Z,6.00
2019-02-22T16:52:36.632Z,5.80
2019-02-22T16:54:47.449Z,5.97
2019-02-22T16:56:58.310Z,4.07
2019-02-22T16:59:09.161Z,5.80
2019-02-22T17:01:20.032Z,5.13
2019-02-22T17:03:30.829Z,8.60
2019-02-22T17:05:41.671Z,7.13
2019-02-22T17:07:53.476Z,7.00
2019-02-22T17:10:26.060Z,8.67
2019-02-22T17:12:36.892Z,5.27
2019-02-22T17:14:47.695Z,5.73
2019-02-22T17:16:58.553Z,6.50
2019-02-22T17:19:09.347Z,7.30
2019-02-22T17:21:20.172Z,6.40
2019-02-22T17:23:31.015Z,8.97
2019-02-22T17:25:41.815Z,6.97
2019-02-22T17:27:52.633Z,8.83
2019-02-22T17:30:45.080Z,7.97
2019-02-22T17:32:55.926Z,8.30
2019-02-22T17:35:06.755Z,6.97
2019-02-22T17:37:17.590Z,6.17
2019-02-22T17:39:28.411Z,6.67
2019-02-22T17:41:39.247Z,6.57
2019-02-22T17:43:50.061Z,6.43
2019-02-22T17:46:00.879Z,8.87
2019-02-22T17:48:11.712Z,6.03
2019-02-22T17:50:22.509Z,6.10
2019-02-22T17:52:33.327Z,7.00
2019-02-22T17:54:44.169Z,7.87
2019-02-22T17:56:54.998Z,6.77
2019-02-22T17:59:05.832Z,10.70
2019-02-22T18:01:16.630Z,6.57
2019-02-22T18:03:27.454Z,9.03
2019-02-22T18:05:38.302Z,6.50
2019-02-22T18:07:49.164Z,8.23
2019-02-22T18:10:00.014Z,8.10
2019-02-22T18:12:10.828Z,8.03
2019-02-22T18:14:21.760Z,7.10
2019-02-22T18:16:32.539Z,6.93
2019-02-22T18:18:43.337Z,8.03
2019-02-22T18:20:54.184Z,7.47
2019-02-22T18:23:05.102Z,9.77
2019-02-22T18:25:15.934Z,8.70
2019-02-22T18:27:26.757Z,6.00
2019-02-22T18:29:37.657Z,7.17
2019-02-22T18:31:48.398Z,5.37
2019-02-22T18:33:59.200Z,8.53
2019-02-22T18:36:10.126Z,6.83
2019-02-22T18:38:20.934Z,6.30
2019-02-22T18:40:31.817Z,9.33
2019-02-22T18:42:42.662Z,4.77
2019-02-22T18:44:53.482Z,7.83
2019-02-22T18:47:04.313Z,8.83
2019-02-22T18:49:15.177Z,7.63
2019-02-22T18:51:25.990Z,12.67
2019-02-22T18:53:36.816Z,10.53
2019-02-22T18:55:50.426Z,6.13
2019-02-22T18:58:00.348Z,12.27
2019-02-22T19:00:52.842Z,10.10
2019-02-22T19:03:03.781Z,13.90
2019-02-22T19:05:14.701Z,10.80
2019-02-22T19:07:27.293Z,10.20
2019-02-22T19:09:38.318Z,10.87
2019-02-22T19:11:49.166Z,10.23
2019-02-22T19:13:59.980Z,7.10
2019-02-22T19:16:10.834Z,6.03
2019-02-22T19:18:21.675Z,6.13
2019-02-22T19:20:32.524Z,8.33
2019-02-22T19:22:43.462Z,6.07
2019-02-22T19:24:54.358Z,7.47
2019-02-22T19:27:05.196Z,8.07
2019-02-22T19:29:15.991Z,7.53
2019-02-22T19:31:26.840Z,7.63
2019-02-22T19:33:37.714Z,6.47
2019-02-22T19:35:48.570Z,5.90
2019-02-22T19:37:59.363Z,9.07
2019-02-22T19:40:51.837Z,10.60
2019-02-22T19:43:02.715Z,7.53
2019-02-22T19:45:13.667Z,6.80
2019-02-22T19:47:24.497Z,7.03
2019-02-22T19:49:35.328Z,9.73
2019-02-22T19:51:46.177Z,7.90
2019-02-22T19:53:56.993Z,8.53
2019-02-22T19:56:07.839Z,5.97
2019-02-22T19:58:18.762Z,7.50
2019-02-22T20:00:29.570Z,8.97
2019-02-22T20:02:40.389Z,8.80
2019-02-22T20:04:53.331Z,5.10
2019-02-22T20:07:04.060Z,8.67
2019-02-22T20:09:14.858Z,9.00
2019-02-22T20:11:25.670Z,9.77
2019-02-22T20:13:36.539Z,9.40
2019-02-22T20:15:47.356Z,9.10
2019-02-22T20:17:58.227Z,8.93
2019-02-22T20:20:50.682Z,8.07
2019-02-22T20:23:01.531Z,8.80
2019-02-22T20:25:12.451Z,7.33
2019-02-22T20:27:23.268Z,7.10
2019-02-22T20:29:34.108Z,10.20
2019-02-22T20:31:44.902Z,12.87
2019-02-22T20:33:55.771Z,7.27
2019-02-22T20:36:06.712Z,8.23
2019-02-22T20:38:17.529Z,7.83
2019-02-22T20:40:28.473Z,8.57
2019-02-22T20:42:39.286Z,8.10
2019-02-22T20:44:50.292Z,8.83
2019-02-22T20:47:01.132Z,8.10
2019-02-22T20:49:12.106Z,6.80
2019-02-22T20:51:22.915Z,9.37
2019-02-22T20:53:33.746Z,9.97
2019-02-22T20:55:44.632Z,8.00
2019-02-22T20:57:55.443Z,8.30
2019-02-22T21:00:26.742Z,10.43
2019-02-22T21:02:37.555Z,6.50
2019-02-22T21:04:48.384Z,8.57
2019-02-22T21:06:59.206Z,8.60
2019-02-22T21:09:10.030Z,7.60
2019-02-22T21:11:20.882Z,7.83
2019-02-22T21:13:31.743Z,7.93
2019-02-22T21:15:42.582Z,7.93
2019-02-22T21:17:53.392Z,10.03
2019-02-22T21:20:45.892Z,12.33
2019-02-22T21:22:56.812Z,9.57
2019-02-22T21:25:49.259Z,10.53
2019-02-22T21:28:00.261Z,9.43
2019-02-22T21:30:52.771Z,9.60
2019-02-22T21:33:03.578Z,8.60
2019-02-22T21:35:14.488Z,11.17
2019-02-22T21:37:25.341Z,8.17
2019-02-22T21:39:36.172Z,8.77
2019-02-22T21:41:47.146Z,10.73
2019-02-22T21:43:57.904Z,11.40
2019-02-22T21:46:08.751Z,12.57
2019-02-22T21:48:27.259Z,10.97
2019-02-22T21:50:32.270Z,10.43
2019-02-22T21:52:43.194Z,12.03
2019-02-22T21:54:54.007Z,9.73
2019-02-22T21:57:04.823Z,9.27
2019-02-22T21:59:15.643Z,11.03
2019-02-22T22:01:26.539Z,9.67
2019-02-22T22:03:37.354Z,10.83
2019-02-22T22:05:48.160Z,9.67
2019-02-22T22:07:58.995Z,9.83
2019-02-22T22:10:09.955Z,8.03
2019-02-22T22:12:20.781Z,8.93
2019-02-22T22:14:31.661Z,8.57
2019-02-22T22:16:42.483Z,10.20
2019-02-22T22:19:13.175Z,8.93
2019-02-22T22:21:23.981Z,9.13
2019-02-22T22:23:34.866Z,10.03
2019-02-22T22:25:45.792Z,8.90
2019-02-22T22:27:56.650Z,9.23
2019-02-22T22:30:49.110Z,8.83
2019-02-22T22:32:59.929Z,9.17
2019-02-22T22:35:52.371Z,9.10
2019-02-22T22:38:03.199Z,8.23
2019-02-22T22:40:14.057Z,8.13
2019-02-22T22:42:24.875Z,9.63
2019-02-22T22:44:35.685Z,9.87
2019-02-22T22:46:46.498Z,7.37
2019-02-22T22:48:57.329Z,7.97
2019-02-22T22:51:08.149Z,8.23
2019-02-22T22:53:18.981Z,9.03
2019-02-22T22:55:29.773Z,8.43
2019-02-22T22:57:40.568Z,10.73
2019-02-22T22:59:51.374Z,9.33
2019-02-22T23:02:02.482Z,8.27
2019-02-22T23:04:13.309Z,10.67
2019-02-22T23:06:24.139Z,8.40
2019-02-22T23:08:34.955Z,9.67
2019-02-22T23:10:45.812Z,9.37
2019-02-22T23:12:56.614Z,10.33
2019-02-22T23:15:07.464Z,8.40
2019-02-22T23:17:18.397Z,8.17
2019-02-22T23:19:29.229Z,8.63
2019-02-22T23:21:40.035Z,9.37
2019-02-22T23:23:50.944Z,7.37
2019-02-22T23:26:01.760Z,7.07
2019-02-22T23:28:12.556Z,9.17
2019-02-22T23:30:23.409Z,9.77
2019-02-22T23:32:34.278Z,9.43
2019-02-22T23:34:45.131Z,8.07
2019-02-22T23:36:55.949Z,8.90
2019-02-22T23:39:48.410Z,7.63
2019-02-22T23:41:59.219Z,8.37
2019-02-22T23:44:10.013Z,10.77
2019-02-22T23:46:20.865Z,8.97
2019-02-22T23:48:31.668Z,11.20
2019-02-22T23:50:42.470Z,8.40
2019-02-22T23:52:53.307Z,8.93
2019-02-22T23:55:24.048Z,8.50
2019-02-22T23:57:34.851Z,7.70
2019-02-22T23:59:45.659Z,8.10
